Lutsen, Minnesota
Current Conditions -  °F | °C
As of 2:21 AM on Sunday 23 Nov 2014 (Local Time) from KCKC Reporting Station
Overcast Overcast  
Wind Chill: 23°   Ceiling: 100
Heat Index: 30°   Visibility: 0mi
Dew Point: 28°   Wind: 7mph
Humidity: 93%   Direction: 100°E
Pressure: 29.5"   Gusts: NA
Location:  47.65°N, 90.68°W
Report Text: KCKC 230821Z AUTO 10006KT M1/4SM OVC001 M01/M02 A2950 RMK AO2
Loading
Personal Weather Stations






























Interactive Weather Map New forecast layout! Learn more

10-Day Weather Forecast

Advertisements
Track Severe Weather on mobile